This is the latest recevied weather packets stored in our database for station/object STV2-WX. If no packets are shown the sender has not sent any weather packets the latest 10 day(s).
| Time | Temp. | Humidity | Pressure | Rain* | Wind** | Luminosity | Snow |
|---|---|---|---|---|---|---|---|
| 1788434229 | 27.22° C | 36% | 1014.1 hPa | - | - | - | - |
| 1788430630 | 26.67° C | 38% | 1014.6 hPa | - | - | - | - |
| 1788427029 | 26.11° C | 41% | 1015 hPa | - | - | - | - |
| 1788423429 | 25° C | 46% | 1015.7 hPa | - | - | - | - |
| 1788419829 | 23.89° C | 50% | 1016.6 hPa | - | - | - | - |
| 1788416242 | 21.67° C | 54% | 1017 hPa | - | - | - | - |
| 1788412628 | 19.44° C | 59% | 1017.2 hPa | - | - | - | - |
| 1788409037 | 17.22° C | 66% | 1017.4 hPa | - | - | - | - |
| 1788405429 | 15.56° C | 68% | 1017.2 hPa | - | - | - | - |
| 1788401828 | 15.56° C | 67% | 1017.1 hPa | - | - | - | - |
| 1788398229 | 15.56° C | 65% | 1017.2 hPa | - | - | - | - |
| 1788394660 | 16.67° C | 62% | 1017.2 hPa | - | - | - | - |
| 1788387498 | 17.78° C | 55% | 1017.2 hPa | - | - | - | - |
| 1788383849 | 18.33° C | 50% | 1017.3 hPa | - | - | - | - |
| 1788380228 | 18.89° C | 51% | 1017.2 hPa | - | - | - | - |
| 1788373089 | 20.56° C | 55% | 1017.4 hPa | - | - | - | - |
| 1788369430 | 21.11° C | 53% | 1017.2 hPa | - | - | - | - |
| 1788365829 | 22.22° C | 48% | 1016.5 hPa | - | - | - | - |
| 1788358629 | 25.56° C | 38% | 1015.8 hPa | - | - | - | - |
| 1788355030 | 26.11° C | 38% | 1016 hPa | - | - | - | - |
| 1788351488 | 26.11° C | 38% | 1016.3 hPa | - | - | - | - |
| 1788347829 | 26.67° C | 38% | 1016.2 hPa | - | - | - | - |
| 1788344228 | 25.56° C | 41% | 1016.7 hPa | - | - | - | - |
| 1788340628 | 25° C | 44% | 1017 hPa | - | - | - | - |
| 1788337030 | 23.33° C | 48% | 1017.3 hPa | - | - | - | - |
* Rain since midnight (hover to see other rain measurements)
** Current wind speed in m/s (hover to see current wind gust speed)